Time;durP1;ratioP1;P1;durP2;ratioP2;P2;SDS_P1;SDS_P2;PMS_P1;PMS_P2;Temp;Humidity;BMP_temperature;BMP_pressure;BME280_temperature;BME280_humidity;BME280_pressure;Samples;Min_cycle;Max_cycle;Signal;HPM_P1;HPM_P2
2023/01/21 00:01:19;;;;;;;31.00;18.23;;;0.40;99.90;;;-141.84;77.14;18907.50;5053590;28;20236;-63
2023/01/21 00:03:47;;;;;;;30.13;18.17;;;0.50;99.90;;;-141.84;77.02;18895.31;5053459;28;20221;-61
2023/01/21 00:06:17;;;;;;;29.97;18.07;;;0.60;99.90;;;-141.84;76.85;18901.41;5053328;28;20226;-61
2023/01/21 00:08:45;;;;;;;28.27;17.73;;;0.60;99.90;;;-141.84;76.93;18903.44;5052824;28;20240;-63
2023/01/21 00:11:15;;;;;;;31.73;17.93;;;0.50;99.90;;;-141.84;77.71;18897.34;5052800;28;20201;-62
2023/01/21 00:13:44;;;;;;;31.93;18.37;;;0.50;99.90;;;-141.84;76.98;18891.25;5052642;28;20207;-63
2023/01/21 00:16:13;;;;;;;29.33;17.23;;;0.60;99.90;;;-141.84;75.63;18903.44;5052532;28;20228;-61
2023/01/21 00:18:42;;;;;;;30.63;18.03;;;0.60;99.90;;;-141.84;76.67;18870.94;5052772;28;20277;-63
2023/01/21 00:21:10;;;;;;;27.20;16.73;;;0.60;99.90;;;-141.84;76.92;18921.75;5052481;28;20723;-62
2023/01/21 00:23:40;;;;;;;29.93;17.53;;;0.50;99.90;;;-141.84;77.21;18879.06;5052584;28;20271;-62
2023/01/21 00:26:11;;;;;;;26.07;17.37;;;0.50;99.90;;;-141.84;77.40;18905.47;5053067;28;20198;-61
2023/01/21 00:28:42;;;;;;;28.20;16.67;;;0.50;99.90;;;-141.84;77.00;18915.63;5032937;28;20248;-61
2023/01/21 00:31:11;;;;;;;30.33;17.23;;;0.60;99.90;;;-141.84;75.92;18897.34;5048809;28;20235;-61
2023/01/21 00:33:40;;;;;;;28.77;18.00;;;0.70;99.90;;;-141.84;76.33;18907.50;5052549;28;20710;-62
2023/01/21 00:36:12;;;;;;;32.03;17.83;;;0.60;99.90;;;-141.84;76.35;18913.59;5052445;28;20312;-61
2023/01/21 00:38:42;;;;;;;34.00;18.90;;;0.60;99.90;;;-141.84;76.69;18901.41;5052194;28;20217;-62
2023/01/21 00:41:13;;;;;;;28.53;16.57;;;0.50;99.90;;;-141.84;75.63;18950.19;5052628;28;20206;-61
2023/01/21 00:43:42;;;;;;;28.77;17.10;;;0.70;99.90;;;-141.84;75.21;18891.25;5052740;28;20244;-62
2023/01/21 00:46:11;;;;;;;30.67;18.20;;;0.70;99.90;;;-141.84;75.29;18929.88;5045949;28;20220;-63
2023/01/21 00:48:40;;;;;;;31.30;19.43;;;0.70;99.90;;;-141.84;75.53;18905.47;5032035;28;20280;-64
2023/01/21 00:51:08;;;;;;;32.37;19.23;;;0.60;99.90;;;-141.84;76.10;18919.69;5032439;28;20246;-62
2023/01/21 00:53:40;;;;;;;33.50;19.67;;;0.60;99.90;;;-141.84;76.37;18887.19;5043684;28;20300;-61
2023/01/21 00:56:13;;;;;;;32.83;19.30;;;0.60;99.90;;;-141.84;76.90;18935.97;5052429;28;20225;-61
2023/01/21 00:58:43;;;;;;;34.27;20.10;;;0.50;99.90;;;-141.84;76.16;18899.38;5032360;28;20206;-62
2023/01/21 01:01:15;;;;;;;35.73;20.07;;;0.60;99.90;;;-141.84;75.53;18935.97;5032116;28;20245;-62
2023/01/21 01:03:45;;;;;;;33.10;19.70;;;0.70;99.90;;;-141.84;75.87;18887.19;5032386;28;20229;-62
2023/01/21 01:06:17;;;;;;;32.23;20.30;;;0.70;99.90;;;-141.84;76.13;18899.38;5032095;28;20230;-61
2023/01/21 01:08:48;;;;;;;33.50;18.67;;;0.60;99.90;;;-141.84;75.99;18909.53;5031884;28;20866;-62
2023/01/21 01:11:20;;;;;;;34.97;18.83;;;0.60;99.90;;;-141.84;76.44;18895.31;5031875;28;20194;-62
2023/01/21 01:13:48;;;;;;;31.00;19.40;;;0.50;99.90;;;-141.84;75.93;18938.00;5032614;28;20278;-63
2023/01/21 01:16:17;;;;;;;33.37;18.97;;;0.50;99.90;;;-141.84;75.09;18911.56;5031894;28;20616;-61
2023/01/21 01:18:46;;;;;;;29.93;17.90;;;0.60;99.90;;;-141.84;75.84;18915.63;5031993;28;20272;-63
2023/01/21 01:21:18;;;;;;;29.87;18.43;;;0.50;99.90;;;-141.84;77.12;18895.31;5031734;28;20224;-62
2023/01/21 01:23:46;;;;;;;34.33;19.20;;;0.50;99.90;;;-141.84;76.84;18931.91;5031889;28;20229;-61
2023/01/21 01:26:18;;;;;;;30.60;18.20;;;0.50;99.90;;;-141.84;76.12;18948.16;5031597;28;20210;-61
2023/01/21 01:28:47;;;;;;;30.27;17.93;;;0.50;99.90;;;-141.84;75.31;18889.22;5032212;28;20214;-61
2023/01/21 01:31:17;;;;;;;29.33;18.00;;;0.60;99.90;;;-141.84;75.15;18911.56;5031527;28;20630;-63
2023/01/21 01:33:47;;;;;;;32.50;18.23;;;0.60;99.90;;;-141.84;74.57;18911.56;5031723;28;20288;-62
2023/01/21 01:36:18;;;;;;;28.50;17.17;;;0.60;99.90;;;-141.84;74.89;18860.78;5031274;28;20706;-62
2023/01/21 01:38:46;;;;;;;30.37;16.90;;;0.60;99.90;;;-141.84;74.92;18895.31;5031225;28;20762;-61
2023/01/21 01:41:19;;;;;;;29.83;17.87;;;0.60;99.90;;;-141.84;75.20;18893.28;5031472;28;20210;-62
2023/01/21 01:44:26;;;;;;;28.60;16.63;;;0.50;99.90;;;-141.84;75.84;18913.59;5052115;28;20186;-61
2023/01/21 01:46:59;;;;;;;25.73;15.23;;;0.40;99.90;;;-141.84;75.07;18915.63;5031285;28;20220;-62
2023/01/21 01:49:27;;;;;;;27.20;14.90;;;0.50;99.90;;;-141.84;75.07;18887.19;5031150;28;20234;-62
2023/01/21 01:52:03;;;;;;;23.90;14.80;;;0.50;99.90;;;-141.84;74.61;18897.34;5030593;28;20584;-62
2023/01/21 01:54:38;;;;;;;24.63;15.57;;;0.50;99.90;;;-141.84;75.04;18889.22;5049424;28;20225;-63
2023/01/21 01:57:11;;;;;;;24.23;14.43;;;0.50;99.90;;;-141.84;74.84;18881.09;5050473;28;20228;-62
2023/01/21 01:59:43;;;;;;;24.23;14.57;;;0.40;99.90;;;-141.84;74.41;18909.53;5050913;28;20730;-63
2023/01/21 02:02:16;;;;;;;28.40;15.00;;;0.50;99.90;;;-141.84;74.57;18897.34;5051385;28;20191;-61
2023/01/21 02:04:50;;;;;;;27.30;15.67;;;0.50;99.90;;;-141.84;74.45;18899.38;5051373;28;20215;-61
2023/01/21 02:07:22;;;;;;;25.27;15.83;;;0.50;99.90;;;-141.84;74.76;18864.84;5043687;28;20225;-62
2023/01/21 02:09:53;;;;;;;26.97;15.33;;;0.50;99.90;;;-141.84;75.64;18885.16;5034029;28;20247;-63
2023/01/21 02:12:24;;;;;;;26.70;14.97;;;0.30;99.90;;;-141.84;76.48;18870.94;4998250;28;20229;-62
2023/01/21 02:14:52;;;;;;;21.33;13.07;;;0.30;99.90;;;-141.84;75.87;18889.22;5031027;28;20279;-61
2023/01/21 02:17:43;;;;;;;21.17;13.13;;;0.30;99.90;;;-141.84;74.52;18870.94;5030748;28;20199;-62
2023/01/21 02:20:58;;;;;;;23.97;13.37;;;0.40;99.90;;;-141.84;74.23;18944.09;5031219;28;20193;-62
2023/01/21 02:23:55;;;;;;;25.37;13.60;;;0.40;99.90;;;-141.84;74.87;18899.38;5030820;28;20234;-62
2023/01/21 02:27:05;;;;;;;28.50;13.33;;;0.40;99.90;;;-141.84;74.86;18887.19;5032462;28;20208;-63
2023/01/21 02:30:11;;;;;;;25.07;14.10;;;0.40;99.90;;;-141.84;75.45;18872.97;5030681;28;20247;-61
2023/01/21 02:33:18;;;;;;;23.57;14.97;;;0.30;99.90;;;-141.84;75.16;18862.81;5031095;28;20223;-62
2023/01/21 02:36:01;;;;;;;27.90;15.87;;;0.30;99.90;;;-141.84;75.77;18899.38;5014675;28;20237;-61
2023/01/21 02:38:34;;;;;;;25.90;15.70;;;0.30;99.90;;;-141.84;76.22;18872.97;5043778;28;20198;-62
2023/01/21 02:41:13;;;;;;;26.30;15.03;;;0.20;99.90;;;-141.84;76.69;18868.91;5035542;28;20192;-62
2023/01/21 02:43:53;;;;;;;26.90;15.00;;;0.10;99.90;;;-141.84;76.15;18885.16;5034979;28;20565;-62
2023/01/21 02:46:31;;;;;;;26.33;14.73;;;0.20;99.90;;;-141.84;75.93;18858.75;5052932;28;20277;-60
2023/01/21 02:49:07;;;;;;;26.33;15.33;;;0.20;99.90;;;-141.84;76.50;18870.94;5054610;28;20601;-62
2023/01/21 02:51:35;;;;;;;25.50;15.33;;;0.20;99.90;;;-141.84;76.43;18870.94;5054607;28;20223;-62
2023/01/21 02:54:14;;;;;;;25.93;15.27;;;0.20;99.90;;;-141.84;76.57;18879.06;5039309;28;20709;-63
2023/01/21 02:56:44;;;;;;;25.87;14.37;;;0.20;99.90;;;-141.84;75.97;18911.56;5034358;28;20228;-63
2023/01/21 02:59:13;;;;;;;26.47;14.40;;;0.30;99.90;;;-141.84;74.82;18875.00;5034893;28;20192;-63
2023/01/21 03:02:02;;;;;;;25.90;14.77;;;0.30;99.90;;;-141.84;75.35;18870.94;5054806;28;20242;-62
2023/01/21 03:04:53;;;;;;;29.13;15.73;;;0.30;99.90;;;-141.84;75.04;18909.53;5035423;28;20230;-61
2023/01/21 03:07:29;;;;;;;26.07;15.13;;;0.30;99.90;;;-141.84;75.29;18870.94;5020672;28;20698;-61
2023/01/21 03:10:09;;;;;;;27.23;15.27;;;0.30;99.90;;;-141.84;75.29;18866.88;5014376;28;20266;-63
2023/01/21 03:12:49;;;;;;;28.10;14.40;;;0.20;99.90;;;-141.84;75.32;18875.00;5014460;28;20256;-62
2023/01/21 03:18:19;;;;;;;27.73;15.50;;;0.20;99.90;;;-141.84;76.12;18901.41;5014486;28;20232;-61
2023/01/21 03:20:55;;;;;;;25.70;15.87;;;0.10;99.90;;;-141.84;76.52;18864.84;5014409;28;20233;-61
2023/01/21 03:23:29;;;;;;;26.10;14.63;;;0.10;99.90;;;-141.84;75.65;18893.28;5014233;28;20192;-62
2023/01/21 03:26:00;;;;;;;24.43;14.57;;;0.10;99.90;;;-141.84;75.26;18883.13;5014658;28;20629;-62
2023/01/21 03:28:36;;;;;;;24.20;13.27;;;0.20;99.90;;;-141.84;74.64;18885.16;5013856;28;20837;-62
2023/01/21 03:31:10;;;;;;;28.13;13.90;;;0.20;99.90;;;-141.84;74.90;18897.34;5013878;28;20563;-62
2023/01/21 03:33:44;;;;;;;22.83;12.37;;;0.10;99.90;;;-141.84;74.29;18868.91;5025990;28;20314;-61
2023/01/21 03:36:28;;;;;;;25.50;13.60;;;0.10;99.90;;;-141.84;74.49;18891.25;5053529;28;20222;-62
2023/01/21 03:39:02;;;;;;;27.57;13.93;;;0.00;99.90;;;-141.84;74.50;18885.16;5053943;28;20240;-61
2023/01/21 03:41:39;;;;;;;21.33;12.67;;;0.00;99.90;;;-141.84;74.62;18899.38;5053997;28;20187;-62
2023/01/21 03:44:07;;;;;;;21.47;12.37;;;-0.10;99.90;;;-141.84;74.61;18887.19;5054150;28;20554;-62
2023/01/21 03:46:44;;;;;;;22.33;13.43;;;-0.10;99.90;;;-141.84;74.75;18868.91;5033464;28;20936;-62
2023/01/21 03:49:21;;;;;;;25.87;14.67;;;-0.10;99.90;;;-141.84;75.21;18866.88;5033769;28;20240;-62
2023/01/21 03:51:57;;;;;;;26.83;14.70;;;-0.10;99.90;;;-141.84;75.40;18875.00;5033478;28;20229;-61
2023/01/21 03:54:26;;;;;;;28.93;13.60;;;-0.10;99.90;;;-141.84;75.32;18881.09;5051435;28;20593;-62
2023/01/21 03:56:54;;;;;;;26.90;13.77;;;-0.10;99.90;;;-141.84;74.85;18885.16;5053220;28;20228;-61
2023/01/21 03:59:22;;;;;;;22.43;12.13;;;-0.10;99.90;;;-141.84;74.81;18883.13;5053262;28;20210;-61
2023/01/21 04:01:50;;;;;;;25.80;13.70;;;-0.10;99.90;;;-141.84;74.92;18891.25;5053617;28;20214;-61
2023/01/21 04:04:18;;;;;;;26.10;13.77;;;-0.10;99.90;;;-141.84;74.88;18879.06;5053166;28;20235;-63
2023/01/21 04:06:46;;;;;;;24.43;12.57;;;-0.10;99.90;;;-141.84;75.33;18897.34;5052659;28;20229;-63
2023/01/21 04:09:16;;;;;;;29.47;15.20;;;-0.30;99.90;;;-141.84;75.63;18885.16;5053025;28;20770;-62
2023/01/21 04:11:44;;;;;;;27.87;14.60;;;-0.20;99.90;;;-141.84;76.35;18877.03;5053267;28;20248;-61
2023/01/21 04:14:12;;;;;;;30.57;15.60;;;-0.30;99.90;;;-141.84;75.98;18826.25;5053521;28;20203;-61
2023/01/21 04:16:40;;;;;;;27.70;15.03;;;-0.20;99.90;;;-141.84;75.97;18883.13;5053489;28;20310;-61
2023/01/21 04:19:09;;;;;;;26.40;14.17;;;-0.20;99.90;;;-141.84;76.12;18868.91;5052731;28;20320;-61
2023/01/21 04:21:37;;;;;;;29.43;15.03;;;-0.20;99.90;;;-141.84;76.74;18866.88;5053054;28;20224;-62
2023/01/21 04:24:06;;;;;;;29.37;15.23;;;-0.20;99.90;;;-141.84;76.83;18868.91;5052871;28;20241;-60
2023/01/21 04:26:36;;;;;;;33.00;15.80;;;-0.20;99.90;;;-141.84;77.07;18870.94;5048254;28;20222;-61
2023/01/21 04:29:04;;;;;;;29.83;15.57;;;-0.30;99.90;;;-141.84;76.97;18905.47;5033244;28;20205;-61
2023/01/21 04:31:32;;;;;;;29.67;14.87;;;-0.20;99.90;;;-141.84;77.47;18852.66;5033575;28;20240;-62
2023/01/21 04:34:01;;;;;;;26.87;14.57;;;-0.30;99.90;;;-141.84;77.31;18848.59;5032569;28;20706;-63
2023/01/21 04:36:29;;;;;;;25.57;13.60;;;-0.30;99.90;;;-141.84;77.30;18850.63;5038906;28;20320;-62
2023/01/21 04:38:57;;;;;;;24.10;12.83;;;-0.30;99.90;;;-141.84;76.86;18870.94;5052590;28;20770;-64
2023/01/21 04:41:26;;;;;;;28.10;14.37;;;-0.30;99.90;;;-141.84;76.72;18866.88;5052771;28;20282;-62
2023/01/21 04:43:55;;;;;;;27.07;14.23;;;-0.30;99.90;;;-141.84;77.74;18828.28;5052774;28;20207;-61
2023/01/21 04:46:23;;;;;;;22.27;13.47;;;-0.40;99.90;;;-141.84;76.81;18879.06;5052451;28;20234;-62
2023/01/21 04:48:52;;;;;;;22.77;13.83;;;-0.20;99.90;;;-141.84;77.09;18870.94;5052367;28;20254;-63
2023/01/21 04:51:20;;;;;;;25.33;13.47;;;-0.30;99.90;;;-141.84;76.72;18872.97;5052298;28;20731;-60
2023/01/21 04:53:48;;;;;;;24.90;14.53;;;-0.20;99.90;;;-141.84;76.74;18834.38;5052117;28;20222;-61
2023/01/21 04:56:16;;;;;;;26.67;14.57;;;-0.20;99.90;;;-141.84;76.54;18877.03;5052200;28;20314;-63
2023/01/21 04:58:44;;;;;;;26.37;14.40;;;-0.10;99.90;;;-141.84;76.94;18872.97;5052681;28;20196;-62
2023/01/21 05:01:14;;;;;;;25.50;14.30;;;-0.20;99.90;;;-141.84;76.53;18858.75;5051760;28;20233;-61
2023/01/21 05:03:42;;;;;;;27.03;14.03;;;-0.10;99.90;;;-141.84;76.70;18883.13;5051905;28;20225;-61
2023/01/21 05:06:10;;;;;;;25.10;13.47;;;-0.20;99.90;;;-141.84;76.58;18862.81;5051292;28;20711;-62
2023/01/21 05:08:38;;;;;;;25.50;14.13;;;-0.10;99.90;;;-141.84;76.81;18870.94;5052182;28;20221;-60
2023/01/21 05:11:08;;;;;;;24.83;14.93;;;-0.20;99.90;;;-141.84;77.53;18889.22;5052793;28;20599;-62
2023/01/21 05:13:36;;;;;;;24.40;13.60;;;-0.20;99.90;;;-141.84;77.71;18879.06;5051813;28;20247;-63
2023/01/21 05:16:08;;;;;;;24.30;14.23;;;-0.20;99.90;;;-141.84;77.23;18893.28;5051896;28;20239;-64
2023/01/21 05:18:39;;;;;;;24.67;14.10;;;-0.10;99.90;;;-141.84;76.23;18856.72;5051851;28;20233;-60
2023/01/21 05:21:08;;;;;;;20.57;12.00;;;-0.10;99.90;;;-141.84;77.35;18830.31;5051881;28;20311;-60
2023/01/21 05:23:36;;;;;;;19.57;10.53;;;-0.10;99.90;;;-141.84;76.43;18866.88;5051629;28;20223;-60
2023/01/21 05:26:05;;;;;;;15.37;9.93;;;-0.10;99.90;;;-141.84;76.44;18836.41;5052294;28;20212;-60
2023/01/21 05:28:33;;;;;;;15.03;9.17;;;-0.20;99.90;;;-141.84;76.77;18875.00;5031576;28;20230;-61
2023/01/21 05:31:02;;;;;;;18.43;9.93;;;-0.20;99.90;;;-141.84;76.37;18887.19;5031849;28;20224;-62
2023/01/21 05:33:31;;;;;;;18.30;10.10;;;-0.10;99.90;;;-141.84;76.35;18858.75;5031903;28;20222;-61
2023/01/21 05:36:02;;;;;;;15.60;9.97;;;-0.20;99.90;;;-141.84;76.46;18864.84;5034121;28;20225;-62
2023/01/21 05:38:31;;;;;;;17.73;9.53;;;-0.10;99.90;;;-141.84;76.05;18877.03;5051843;28;20194;-60
2023/01/21 05:41:02;;;;;;;17.70;10.00;;;-0.10;99.90;;;-141.84;75.83;18872.97;5052468;28;20204;-60
2023/01/21 05:43:31;;;;;;;19.67;10.53;;;-0.10;99.90;;;-141.84;75.82;18854.69;5051526;28;20229;-62
2023/01/21 05:45:59;;;;;;;17.63;10.03;;;-0.10;99.90;;;-141.84;75.85;18842.50;5051358;28;20236;-65
2023/01/21 05:48:28;;;;;;;16.70;9.37;;;-0.10;99.90;;;-141.84;76.31;18864.84;5051608;28;20229;-61
2023/01/21 05:50:57;;;;;;;14.80;9.47;;;-0.10;99.90;;;-141.84;76.45;18887.19;5051206;28;20231;-62
2023/01/21 05:53:27;;;;;;;19.10;9.50;;;-0.10;99.90;;;-141.84;77.23;18866.88;5050850;28;20555;-63
2023/01/21 05:55:57;;;;;;;16.30;9.20;;;-0.20;99.90;;;-141.84;77.60;18901.41;5051537;28;20704;-62
2023/01/21 05:58:25;;;;;;;16.23;8.93;;;-0.20;99.90;;;-141.84;77.26;18834.38;5051218;28;20251;-62
2023/01/21 06:00:53;;;;;;;15.10;9.13;;;-0.20;99.90;;;-141.84;77.28;18854.69;5051167;28;20234;-61
2023/01/21 06:03:21;;;;;;;16.63;9.17;;;-0.10;99.90;;;-141.84;77.18;18868.91;5051307;28;20236;-60
2023/01/21 06:05:50;;;;;;;16.03;8.97;;;-0.10;99.90;;;-141.84;77.12;18854.69;5051367;28;20259;-63
2023/01/21 06:08:19;;;;;;;15.00;8.93;;;-0.10;99.90;;;-141.84;77.41;18862.81;5050917;28;20208;-62
2023/01/21 06:10:48;;;;;;;14.30;8.63;;;-0.10;99.90;;;-141.84;77.34;18885.16;5051612;28;20198;-61
2023/01/21 06:13:17;;;;;;;19.13;9.70;;;-0.10;99.90;;;-141.84;78.08;18814.03;5049866;28;20602;-61
2023/01/21 06:15:45;;;;;;;15.43;8.53;;;-0.10;99.90;;;-141.84;78.28;18889.22;5050717;28;20291;-62
2023/01/21 06:18:13;;;;;;;16.37;8.97;;;-0.20;99.90;;;-141.84;78.41;18864.84;5051352;28;20336;-62
2023/01/21 06:20:41;;;;;;;18.80;10.23;;;-0.20;99.90;;;-141.84;78.22;18881.09;5050783;28;20237;-61
2023/01/21 06:23:09;;;;;;;17.17;9.53;;;-0.20;99.90;;;-141.84;78.27;18836.41;5044686;28;20194;-60
2023/01/21 06:25:38;;;;;;;17.27;9.60;;;-0.20;99.90;;;-141.84;79.10;18842.50;5030835;28;20235;-61
2023/01/21 06:28:10;;;;;;;18.13;9.93;;;-0.20;99.90;;;-141.84;78.85;18862.81;5048068;28;20585;-61
2023/01/21 06:30:38;;;;;;;19.37;10.23;;;-0.20;99.90;;;-141.84;78.25;18875.00;5050918;28;20230;-62
2023/01/21 06:33:07;;;;;;;19.00;10.23;;;-0.10;99.90;;;-141.84;77.37;18885.16;5050780;28;20227;-63
2023/01/21 06:35:35;;;;;;;18.57;10.30;;;0.00;99.90;;;-141.84;77.21;18883.13;5050866;28;20229;-62
2023/01/21 06:38:04;;;;;;;19.03;9.83;;;0.00;99.90;;;-141.84;76.97;18887.19;5032075;28;20227;-61
2023/01/21 06:40:32;;;;;;;18.27;10.50;;;0.10;99.90;;;-141.84;77.39;18830.31;5030825;28;20445;-62
2023/01/21 06:43:00;;;;;;;20.23;10.73;;;0.00;99.90;;;-141.84;77.23;18879.06;5030595;28;20226;-61
2023/01/21 06:45:29;;;;;;;18.80;10.43;;;0.00;99.90;;;-141.84;77.60;18879.06;5041533;28;20228;-62
2023/01/21 06:47:57;;;;;;;18.07;10.67;;;0.00;99.90;;;-141.84;77.74;18877.03;5050586;28;20231;-62
2023/01/21 06:50:26;;;;;;;17.63;10.90;;;0.00;99.90;;;-141.84;77.83;18893.28;5050355;28;20613;-61
2023/01/21 06:52:54;;;;;;;21.27;10.60;;;0.00;99.90;;;-141.84;77.42;18868.91;5050826;28;20209;-62
2023/01/21 06:55:22;;;;;;;20.07;10.40;;;0.00;99.90;;;-141.84;77.30;18856.72;5050317;28;20349;-62
2023/01/21 06:57:50;;;;;;;18.70;10.80;;;0.00;99.90;;;-141.84;77.21;18836.41;5050593;28;20242;-61
2023/01/21 07:00:19;;;;;;;16.77;9.83;;;-0.10;99.90;;;-141.84;77.64;18875.00;5050495;28;20249;-62
2023/01/21 07:02:49;;;;;;;17.77;10.60;;;0.00;99.90;;;-141.84;77.90;18868.91;5050621;28;20304;-62
2023/01/21 07:05:19;;;;;;;19.40;11.20;;;0.00;99.90;;;-141.84;77.59;18844.53;5050383;28;20201;-62
2023/01/21 07:07:47;;;;;;;18.07;10.60;;;0.00;99.90;;;-141.84;76.88;18866.88;5050808;28;20304;-61
2023/01/21 07:10:16;;;;;;;20.63;11.30;;;0.00;99.90;;;-141.84;76.69;18887.19;5050090;28;20244;-61
2023/01/21 07:12:45;;;;;;;23.10;11.73;;;0.10;99.90;;;-141.84;76.78;18889.22;5049670;28;20435;-62
2023/01/21 07:15:13;;;;;;;19.03;11.43;;;0.10;99.90;;;-141.84;77.35;18877.03;5049317;28;20300;-62
2023/01/21 07:17:41;;;;;;;19.90;11.07;;;0.10;99.90;;;-141.84;77.34;18856.72;5049205;28;20257;-61
2023/01/21 07:20:12;;;;;;;19.27;10.13;;;0.10;99.90;;;-141.84;77.57;18885.16;5036776;28;20232;-62
2023/01/21 07:22:40;;;;;;;17.37;10.43;;;0.10;99.90;;;-141.84;77.28;18870.94;5029455;28;20213;-63
2023/01/21 07:25:09;;;;;;;19.37;10.30;;;0.10;99.90;;;-141.84;77.32;18862.81;5032566;28;20231;-62
2023/01/21 07:27:37;;;;;;;16.77;10.43;;;0.10;99.90;;;-141.84;77.23;18862.81;5032814;28;20232;-62
2023/01/21 07:30:08;;;;;;;20.50;10.00;;;0.20;99.90;;;-141.84;77.18;18870.94;5033064;28;20226;-61
2023/01/21 07:32:36;;;;;;;15.87;9.67;;;0.20;99.90;;;-141.84;77.30;18889.22;5032640;28;20688;-60
2023/01/21 07:35:05;;;;;;;19.23;10.40;;;0.20;99.90;;;-141.84;77.57;18870.94;5033333;28;20223;-61
2023/01/21 07:37:34;;;;;;;15.63;9.80;;;0.20;99.90;;;-141.84;77.53;18862.81;5032613;28;20226;-62
2023/01/21 07:40:02;;;;;;;17.53;9.67;;;0.20;99.90;;;-141.84;77.14;18856.72;5032840;28;20811;-62
2023/01/21 07:42:30;;;;;;;14.43;9.37;;;0.20;99.90;;;-141.84;76.28;18866.88;5032560;28;20232;-62
2023/01/21 07:45:01;;;;;;;18.27;9.87;;;0.30;99.90;;;-141.84;75.75;18897.34;5036908;28;20248;-63
2023/01/21 07:47:30;;;;;;;16.73;9.10;;;0.30;99.90;;;-141.84;75.68;18895.31;5032042;28;20186;-62
2023/01/21 07:50:03;;;;;;;16.10;9.20;;;0.30;99.90;;;-141.84;76.26;18907.50;5032519;28;20672;-61
2023/01/21 07:52:33;;;;;;;14.93;8.93;;;0.20;99.90;;;-141.84;76.34;18877.03;5030955;28;20645;-62
2023/01/21 07:55:02;;;;;;;16.70;9.07;;;0.30;99.90;;;-141.84;76.82;18862.81;5032333;28;20713;-61
2023/01/21 07:57:30;;;;;;;15.83;9.53;;;0.30;99.90;;;-141.84;76.35;18862.81;5033070;28;20235;-62
2023/01/21 07:59:58;;;;;;;14.97;9.43;;;0.30;99.90;;;-141.84;75.43;18901.41;5032464;28;20755;-62
2023/01/21 08:02:27;;;;;;;16.00;9.07;;;0.40;99.90;;;-141.84;74.92;18895.31;5033096;28;20662;-61
2023/01/21 08:04:55;;;;;;;13.83;8.73;;;0.50;99.90;;;-141.84;74.89;18881.09;5033685;28;20291;-62
2023/01/21 08:07:23;;;;;;;16.40;9.17;;;0.50;99.90;;;-141.84;75.32;18881.09;5032379;28;20259;-61
2023/01/21 08:09:53;;;;;;;16.33;9.70;;;0.50;99.90;;;-141.84;76.07;18879.06;5032374;28;20229;-62
2023/01/21 08:12:21;;;;;;;13.40;8.47;;;0.50;99.90;;;-141.84;76.60;18862.81;5032191;28;20229;-62
2023/01/21 08:14:49;;;;;;;16.17;9.57;;;0.40;99.90;;;-141.84;76.16;18866.88;5032221;28;20218;-61
2023/01/21 08:17:17;;;;;;;17.20;9.80;;;0.40;99.90;;;-141.84;75.78;18919.69;5012333;28;20671;-62
2023/01/21 08:19:45;;;;;;;14.47;8.60;;;0.40;99.90;;;-141.84;75.79;18905.47;5012413;28;20401;-61
2023/01/21 08:22:13;;;;;;;15.23;9.40;;;0.40;99.90;;;-141.84;75.89;18899.38;5012279;28;20336;-61
2023/01/21 08:24:41;;;;;;;15.13;9.47;;;0.40;99.90;;;-141.84;75.66;18891.25;5011384;28;20233;-63
2023/01/21 08:27:11;;;;;;;15.80;9.47;;;0.40;99.90;;;-141.84;76.23;18901.41;5020892;28;20236;-61
2023/01/21 08:29:39;;;;;;;14.70;9.43;;;0.30;99.90;;;-141.84;76.74;18891.25;5031269;28;20230;-62
2023/01/21 08:32:07;;;;;;;19.07;9.90;;;0.30;99.90;;;-141.84;77.27;18868.91;5032528;28;20204;-61
2023/01/21 08:34:35;;;;;;;18.00;9.90;;;0.30;99.90;;;-141.84;76.91;18879.06;5031710;28;20230;-62
2023/01/21 08:37:04;;;;;;;19.03;9.37;;;0.30;99.90;;;-141.84;77.00;18852.66;5020069;28;20244;-62
2023/01/21 08:39:32;;;;;;;19.30;11.70;;;0.40;99.90;;;-141.84;77.12;18885.16;5012081;28;20231;-62
2023/01/21 08:42:00;;;;;;;17.33;10.20;;;0.30;99.90;;;-141.84;76.09;18885.16;5011797;28;20259;-61
2023/01/21 08:44:29;;;;;;;14.33;8.50;;;0.40;99.90;;;-141.84;75.90;18883.13;5014636;28;20206;-62
2023/01/21 08:46:58;;;;;;;14.67;8.83;;;0.50;99.90;;;-141.84;76.24;18889.22;5031788;28;20674;-62
2023/01/21 08:49:26;;;;;;;14.33;9.10;;;0.40;99.90;;;-141.84;76.35;18891.25;5024345;28;20735;-62
2023/01/21 08:51:54;;;;;;;15.10;9.10;;;0.40;99.90;;;-141.84;76.07;18919.69;5011540;28;20245;-62
2023/01/21 08:54:22;;;;;;;16.40;9.30;;;0.40;99.90;;;-141.84;75.43;18893.28;5028952;28;20713;-62
2023/01/21 08:56:50;;;;;;;15.53;9.20;;;0.50;99.90;;;-141.84;75.08;18877.03;5031224;28;20240;-61
2023/01/21 08:59:26;;;;;;;15.87;9.13;;;0.50;99.90;;;-141.84;74.54;18885.16;5030158;28;20202;-61
2023/01/21 09:01:55;;;;;;;14.90;7.83;;;0.60;99.90;;;-141.84;75.06;18903.44;5052026;28;20216;-62
2023/01/21 09:04:24;;;;;;;12.97;8.30;;;0.60;99.90;;;-141.84;74.76;18919.69;5050521;28;20228;-61
2023/01/21 09:06:52;;;;;;;15.87;8.53;;;0.60;99.90;;;-141.84;75.01;18889.22;5050620;28;20243;-62
2023/01/21 09:09:20;;;;;;;14.70;9.27;;;0.60;99.90;;;-141.84;74.73;18921.75;5050935;28;20234;-61
2023/01/21 09:11:49;;;;;;;14.17;8.33;;;0.60;99.90;;;-141.84;75.19;18899.38;5051031;28;20715;-62
2023/01/21 09:14:17;;;;;;;14.37;8.50;;;0.60;99.90;;;-141.84;75.19;18895.31;5051300;28;20228;-61
2023/01/21 09:16:47;;;;;;;14.97;8.50;;;0.60;99.90;;;-141.84;74.23;18911.56;5052067;28;20208;-62
2023/01/21 09:19:17;;;;;;;15.23;8.10;;;0.80;99.90;;;-141.84;74.67;18909.53;5050945;28;20298;-63
2023/01/21 09:21:45;;;;;;;13.03;8.17;;;0.70;99.90;;;-141.84;75.13;18879.06;5050643;28;20235;-63
2023/01/21 09:24:13;;;;;;;14.43;8.17;;;0.70;99.90;;;-141.84;74.99;18893.28;5051174;28;20226;-62
2023/01/21 09:26:43;;;;;;;13.43;8.33;;;0.70;99.90;;;-141.84;74.81;18911.56;5051146;28;20228;-62
2023/01/21 09:29:12;;;;;;;11.00;7.53;;;0.70;99.90;;;-141.84;74.31;18929.88;5052007;28;20215;-62
2023/01/21 09:31:40;;;;;;;13.17;7.90;;;0.80;99.90;;;-141.84;74.37;18875.00;5051528;28;20689;-62
2023/01/21 09:34:10;;;;;;;13.67;8.47;;;0.70;99.90;;;-141.84;73.68;18907.50;5058506;28;20220;-63
2023/01/21 09:36:40;;;;;;;11.10;7.93;;;0.80;99.90;;;-141.84;73.46;18889.22;5062701;28;20620;-62
2023/01/21 09:39:08;;;;;;;13.67;7.43;;;0.90;99.90;;;-141.84;73.17;18933.94;5050578;28;20647;-63
2023/01/21 09:41:41;;;;;;;12.73;7.60;;;0.90;99.90;;;-141.84;73.34;18931.91;5051015;28;20234;-63
2023/01/21 09:44:25;;;;;;;12.77;7.63;;;1.00;99.90;;;-141.84;73.81;18921.75;5051004;28;20638;-63
2023/01/21 09:47:00;;;;;;;12.73;7.60;;;1.00;99.90;;;-141.84;72.96;18917.66;5051101;28;20567;-63
2023/01/21 09:49:36;;;;;;;12.50;7.63;;;1.10;99.90;;;-141.84;73.11;18946.13;5050681;28;20625;-63
2023/01/21 09:52:26;;;;;;;12.87;7.50;;;1.00;99.90;;;-141.84;72.98;18935.97;5050222;28;20233;-63
2023/01/21 09:54:55;;;;;;;10.97;7.00;;;1.10;99.90;;;-141.84;72.66;18933.94;5010584;28;20233;-64
2023/01/21 09:57:53;;;;;;;12.90;7.30;;;1.10;99.90;;;-141.84;73.31;18946.13;5011760;28;20267;-66
2023/01/21 10:00:36;;;;;;;10.87;7.63;;;1.10;99.90;;;-141.84;72.79;18940.03;5030768;28;20230;-62
2023/01/21 10:03:20;;;;;;;13.77;8.00;;;1.20;99.90;;;-141.84;71.98;18944.09;5030335;28;20229;-62
2023/01/21 10:06:11;;;;;;;12.87;7.97;;;1.30;99.90;;;-141.84;72.27;18933.94;5011107;28;20344;-64
2023/01/21 10:08:59;;;;;;;14.60;9.20;;;1.20;99.90;;;-141.84;72.13;18946.13;5030447;28;20312;-63
2023/01/21 10:11:45;;;;;;;14.00;8.77;;;1.30;99.90;;;-141.84;71.88;18942.06;5030647;28;20201;-63
2023/01/21 10:14:51;;;;;;;13.37;8.00;;;1.30;99.90;;;-141.84;72.12;18994.88;5030100;28;20705;-64
2023/01/21 10:17:34;;;;;;;15.07;9.37;;;1.30;99.90;;;-141.84;71.78;18956.28;5030314;28;20193;-62
2023/01/21 10:20:13;;;;;;;12.63;8.33;;;1.40;99.90;;;-141.84;71.96;18935.97;5030405;28;20182;-64
2023/01/21 10:22:51;;;;;;;13.40;9.20;;;1.40;99.90;;;-141.84;72.38;18952.22;5030597;28;20751;-64